sensor_id;sensor_type;location;lat;lon;timestamp;P1;durP1;ratioP1;P2;durP2;ratioP2
40012;SDS011;37387;42.672;23.334;2023-02-01T00:00:44;8.8;;;5.0;;
40012;SDS011;37387;42.672;23.334;2023-02-01T00:01:44;6.9;;;4.8;;
40012;SDS011;37387;42.672;23.334;2023-02-01T00:02:44;5.3;;;4.6;;
40012;SDS011;37387;42.672;23.334;2023-02-01T00:03:43;5.5;;;4.4;;
40012;SDS011;37387;42.672;23.334;2023-02-01T00:04:43;5.9;;;4.7;;
40012;SDS011;37387;42.672;23.334;2023-02-01T00:05:43;6.8;;;4.8;;
40012;SDS011;37387;42.672;23.334;2023-02-01T00:06:43;6.8;;;5.0;;
40012;SDS011;37387;42.672;23.334;2023-02-01T00:07:46;6.8;;;5.1;;
40012;SDS011;37387;42.672;23.334;2023-02-01T00:08:43;6.8;;;4.9;;
40012;SDS011;37387;42.672;23.334;2023-02-01T00:09:43;6.8;;;5.1;;
40012;SDS011;37387;42.672;23.334;2023-02-01T00:10:42;8.1;;;4.9;;
40012;SDS011;37387;42.672;23.334;2023-02-01T00:11:43;8.3;;;4.2;;
40012;SDS011;37387;42.672;23.334;2023-02-01T00:12:42;7.1;;;4.6;;
40012;SDS011;37387;42.672;23.334;2023-02-01T00:14:42;5.5;;;11.0;;
40012;SDS011;37387;42.672;23.334;2023-02-01T00:16:42;42.1;;;20.5;;
40012;SDS011;37387;42.672;23.334;2023-02-01T00:17:42;42.1;;;7.5;;
40012;SDS011;37387;42.672;23.334;2023-02-01T00:18:41;12.9;;;6.2;;
40012;SDS011;37387;42.672;23.334;2023-02-01T00:19:41;9.9;;;4.2;;
40012;SDS011;37387;42.672;23.334;2023-02-01T00:21:41;5.4;;;4.6;;
40012;SDS011;37387;42.672;23.334;2023-02-01T00:22:41;5.1;;;4.5;;
40012;SDS011;37387;42.672;23.334;2023-02-01T00:23:41;5.1;;;4.3;;
40012;SDS011;37387;42.672;23.334;2023-02-01T00:24:41;6.9;;;4.0;;
40012;SDS011;37387;42.672;23.334;2023-02-01T00:25:41;5.3;;;4.4;;
40012;SDS011;37387;42.672;23.334;2023-02-01T00:26:41;6.3;;;4.1;;
40012;SDS011;37387;42.672;23.334;2023-02-01T00:28:40;6.5;;;4.8;;
40012;SDS011;37387;42.672;23.334;2023-02-01T00:29:40;6.5;;;4.3;;
40012;SDS011;37387;42.672;23.334;2023-02-01T00:31:40;6.9;;;4.8;;
40012;SDS011;37387;42.672;23.334;2023-02-01T00:32:40;6.5;;;5.0;;
40012;SDS011;37387;42.672;23.334;2023-02-01T00:33:40;6.6;;;4.4;;
40012;SDS011;37387;42.672;23.334;2023-02-01T00:34:40;6.6;;;4.3;;
40012;SDS011;37387;42.672;23.334;2023-02-01T00:35:40;7.5;;;5.1;;
40012;SDS011;37387;42.672;23.334;2023-02-01T00:36:40;7.5;;;4.6;;
40012;SDS011;37387;42.672;23.334;2023-02-01T00:37:39;6.7;;;4.2;;
40012;SDS011;37387;42.672;23.334;2023-02-01T00:38:39;6.7;;;4.3;;
40012;SDS011;37387;42.672;23.334;2023-02-01T00:39:39;6.4;;;4.4;;
40012;SDS011;37387;42.672;23.334;2023-02-01T00:40:39;7.6;;;4.5;;
40012;SDS011;37387;42.672;23.334;2023-02-01T00:41:39;6.4;;;5.0;;
40012;SDS011;37387;42.672;23.334;2023-02-01T00:42:39;6.4;;;4.6;;
40012;SDS011;37387;42.672;23.334;2023-02-01T00:43:39;6.2;;;4.3;;
40012;SDS011;37387;42.672;23.334;2023-02-01T00:44:39;7.2;;;4.9;;
40012;SDS011;37387;42.672;23.334;2023-02-01T00:45:38;6.5;;;4.3;;
40012;SDS011;37387;42.672;23.334;2023-02-01T00:47:38;6.7;;;3.9;;
40012;SDS011;37387;42.672;23.334;2023-02-01T00:48:38;5.7;;;4.2;;
40012;SDS011;37387;42.672;23.334;2023-02-01T00:49:38;6.4;;;4.4;;
40012;SDS011;37387;42.672;23.334;2023-02-01T00:50:40;6.6;;;4.1;;
40012;SDS011;37387;42.672;23.334;2023-02-01T00:52:38;6.7;;;4.2;;
40012;SDS011;37387;42.672;23.334;2023-02-01T00:53:38;6.0;;;3.9;;
40012;SDS011;37387;42.672;23.334;2023-02-01T00:54:37;6.4;;;4.2;;
40012;SDS011;37387;42.672;23.334;2023-02-01T00:55:37;6.4;;;3.8;;
40012;SDS011;37387;42.672;23.334;2023-02-01T00:57:37;5.5;;;3.7;;
40012;SDS011;37387;42.672;23.334;2023-02-01T00:58:37;7.4;;;4.3;;
40012;SDS011;37387;42.672;23.334;2023-02-01T00:59:37;5.0;;;4.2;;
40012;SDS011;37387;42.672;23.334;2023-02-01T01:00:39;5.0;;;3.7;;
40012;SDS011;37387;42.672;23.334;2023-02-01T01:01:37;6.5;;;3.9;;
40012;SDS011;37387;42.672;23.334;2023-02-01T01:02:36;6.5;;;4.1;;
40012;SDS011;37387;42.672;23.334;2023-02-01T01:03:37;5.6;;;4.5;;
40012;SDS011;37387;42.672;23.334;2023-02-01T01:04:36;8.0;;;4.0;;
40012;SDS011;37387;42.672;23.334;2023-02-01T01:05:36;6.5;;;3.5;;
40012;SDS011;37387;42.672;23.334;2023-02-01T01:08:36;5.3;;;3.7;;
40012;SDS011;37387;42.672;23.334;2023-02-01T01:09:36;5.3;;;3.3;;
40012;SDS011;37387;42.672;23.334;2023-02-01T01:11:36;4.4;;;3.2;;
40012;SDS011;37387;42.672;23.334;2023-02-01T01:13:35;5.9;;;3.6;;
40012;SDS011;37387;42.672;23.334;2023-02-01T01:14:35;5.2;;;3.2;;
40012;SDS011;37387;42.672;23.334;2023-02-01T01:15:35;5.2;;;3.5;;
40012;SDS011;37387;42.672;23.334;2023-02-01T01:16:35;7.7;;;3.4;;
40012;SDS011;37387;42.672;23.334;2023-02-01T01:17:35;4.5;;;3.2;;
40012;SDS011;37387;42.672;23.334;2023-02-01T01:18:35;5.7;;;4.0;;
40012;SDS011;37387;42.672;23.334;2023-02-01T01:19:34;5.9;;;3.4;;
40012;SDS011;37387;42.672;23.334;2023-02-01T01:20:35;5.9;;;3.7;;
40012;SDS011;37387;42.672;23.334;2023-02-01T01:21:34;5.9;;;3.8;;
40012;SDS011;37387;42.672;23.334;2023-02-01T01:22:34;5.9;;;3.6;;
40012;SDS011;37387;42.672;23.334;2023-02-01T01:24:34;7.2;;;3.7;;
40012;SDS011;37387;42.672;23.334;2023-02-01T01:25:36;6.3;;;3.5;;
40012;SDS011;37387;42.672;23.334;2023-02-01T01:26:33;7.5;;;3.4;;
40012;SDS011;37387;42.672;23.334;2023-02-01T01:27:33;4.5;;;3.1;;
40012;SDS011;37387;42.672;23.334;2023-02-01T01:28:33;5.3;;;3.4;;
40012;SDS011;37387;42.672;23.334;2023-02-01T01:29:33;5.3;;;3.3;;
40012;SDS011;37387;42.672;23.334;2023-02-01T01:30:33;5.4;;;3.2;;
40012;SDS011;37387;42.672;23.334;2023-02-01T01:31:33;5.4;;;3.0;;
40012;SDS011;37387;42.672;23.334;2023-02-01T01:32:33;3.6;;;3.1;;
40012;SDS011;37387;42.672;23.334;2023-02-01T01:33:33;4.3;;;3.2;;
40012;SDS011;37387;42.672;23.334;2023-02-01T01:34:32;4.6;;;2.9;;
40012;SDS011;37387;42.672;23.334;2023-02-01T01:36:32;4.7;;;2.5;;
40012;SDS011;37387;42.672;23.334;2023-02-01T01:37:32;3.6;;;2.7;;
40012;SDS011;37387;42.672;23.334;2023-02-01T01:38:32;5.2;;;3.0;;
40012;SDS011;37387;42.672;23.334;2023-02-01T01:39:32;5.0;;;2.8;;
40012;SDS011;37387;42.672;23.334;2023-02-01T01:40:32;5.0;;;2.9;;
40012;SDS011;37387;42.672;23.334;2023-02-01T01:46:32;5.4;;;2.8;;
40012;SDS011;37387;42.672;23.334;2023-02-01T01:48:31;7.0;;;3.1;;
40012;SDS011;37387;42.672;23.334;2023-02-01T01:49:31;5.0;;;2.8;;
40012;SDS011;37387;42.672;23.334;2023-02-01T01:50:31;3.9;;;2.9;;
40012;SDS011;37387;42.672;23.334;2023-02-01T01:51:31;4.9;;;3.0;;
40012;SDS011;37387;42.672;23.334;2023-02-01T01:52:30;4.0;;;2.9;;
40012;SDS011;37387;42.672;23.334;2023-02-01T01:55:31;6.0;;;2.8;;
40012;SDS011;37387;42.672;23.334;2023-02-01T01:56:30;6.1;;;2.7;;
40012;SDS011;37387;42.672;23.334;2023-02-01T01:58:30;3.8;;;3.1;;
40012;SDS011;37387;42.672;23.334;2023-02-01T01:59:29;4.8;;;2.7;;
40012;SDS011;37387;42.672;23.334;2023-02-01T02:00:29;4.9;;;2.9;;
40012;SDS011;37387;42.672;23.334;2023-02-01T02:02:29;9.2;;;2.8;;
40012;SDS011;37387;42.672;23.334;2023-02-01T02:04:29;4.4;;;3.0;;
40012;SDS011;37387;42.672;23.334;2023-02-01T02:05:29;3.9;;;2.6;;
40012;SDS011;37387;42.672;23.334;2023-02-01T02:06:32;3.5;;;3.0;;
40012;SDS011;37387;42.672;23.334;2023-02-01T02:07:30;4.9;;;2.8;;
40012;SDS011;37387;42.672;23.334;2023-02-01T02:08:29;3.8;;;3.1;;
40012;SDS011;37387;42.672;23.334;2023-02-01T02:10:28;5.8;;;3.2;;
40012;SDS011;37387;42.672;23.334;2023-02-01T02:11:28;6.3;;;3.3;;
40012;SDS011;37387;42.672;23.334;2023-02-01T02:12:28;5.4;;;3.1;;
40012;SDS011;37387;42.672;23.334;2023-02-01T02:13:29;6.9;;;3.0;;
40012;SDS011;37387;42.672;23.334;2023-02-01T02:14:27;4.1;;;2.9;;
40012;SDS011;37387;42.672;23.334;2023-02-01T02:16:32;3.7;;;2.6;;
40012;SDS011;37387;42.672;23.334;2023-02-01T02:17:30;3.7;;;3.1;;
40012;SDS011;37387;42.672;23.334;2023-02-01T02:18:29;6.4;;;3.0;;
40012;SDS011;37387;42.672;23.334;2023-02-01T02:19:32;5.5;;;3.1;;
40012;SDS011;37387;42.672;23.334;2023-02-01T02:20:30;5.1;;;2.9;;
40012;SDS011;37387;42.672;23.334;2023-02-01T02:22:33;5.3;;;2.7;;
40012;SDS011;37387;42.672;23.334;2023-02-01T02:26:30;6.5;;;3.3;;
40012;SDS011;37387;42.672;23.334;2023-02-01T02:27:28;4.5;;;2.8;;
40012;SDS011;37387;42.672;23.334;2023-02-01T02:28:32;4.5;;;3.1;;
40012;SDS011;37387;42.672;23.334;2023-02-01T02:29:35;4.8;;;3.0;;
40012;SDS011;37387;42.672;23.334;2023-02-01T02:31:32;7.9;;;2.6;;
40012;SDS011;37387;42.672;23.334;2023-02-01T02:32:31;4.5;;;3.2;;
40012;SDS011;37387;42.672;23.334;2023-02-01T02:33:32;6.2;;;3.0;;
40012;SDS011;37387;42.672;23.334;2023-02-01T02:35:26;5.3;;;3.1;;
40012;SDS011;37387;42.672;23.334;2023-02-01T02:36:28;5.0;;;2.8;;
40012;SDS011;37387;42.672;23.334;2023-02-01T02:37:26;4.1;;;2.7;;
40012;SDS011;37387;42.672;23.334;2023-02-01T02:38:26;4.9;;;2.9;;
40012;SDS011;37387;42.672;23.334;2023-02-01T02:40:26;5.3;;;3.4;;
40012;SDS011;37387;42.672;23.334;2023-02-01T02:41:26;4.8;;;2.8;;
40012;SDS011;37387;42.672;23.334;2023-02-01T02:42:25;5.3;;;3.1;;
40012;SDS011;37387;42.672;23.334;2023-02-01T02:43:25;5.0;;;3.3;;
40012;SDS011;37387;42.672;23.334;2023-02-01T02:44:25;6.1;;;3.0;;
40012;SDS011;37387;42.672;23.334;2023-02-01T02:45:25;5.5;;;3.3;;
40012;SDS011;37387;42.672;23.334;2023-02-01T02:46:24;5.6;;;2.8;;
40012;SDS011;37387;42.672;23.334;2023-02-01T02:47:24;6.9;;;3.1;;
40012;SDS011;37387;42.672;23.334;2023-02-01T02:48:25;6.9;;;2.9;;
40012;SDS011;37387;42.672;23.334;2023-02-01T02:50:24;5.8;;;2.6;;
40012;SDS011;37387;42.672;23.334;2023-02-01T02:51:23;4.2;;;2.8;;
40012;SDS011;37387;42.672;23.334;2023-02-01T02:52:22;4.2;;;3.1;;
40012;SDS011;37387;42.672;23.334;2023-02-01T02:53:23;5.8;;;2.8;;
40012;SDS011;37387;42.672;23.334;2023-02-01T02:54:23;4.5;;;2.9;;
40012;SDS011;37387;42.672;23.334;2023-02-01T02:56:22;5.0;;;3.2;;
40012;SDS011;37387;42.672;23.334;2023-02-01T02:57:22;6.4;;;3.4;;
40012;SDS011;37387;42.672;23.334;2023-02-01T02:58:22;6.4;;;3.1;;
40012;SDS011;37387;42.672;23.334;2023-02-01T02:59:22;4.3;;;3.3;;
40012;SDS011;37387;42.672;23.334;2023-02-01T03:02:21;4.6;;;3.2;;
40012;SDS011;37387;42.672;23.334;2023-02-01T03:03:21;6.1;;;3.4;;
40012;SDS011;37387;42.672;23.334;2023-02-01T03:04:21;6.1;;;2.8;;
40012;SDS011;37387;42.672;23.334;2023-02-01T03:05:21;5.7;;;3.0;;
40012;SDS011;37387;42.672;23.334;2023-02-01T03:06:22;5.7;;;2.4;;
40012;SDS011;37387;42.672;23.334;2023-02-01T03:08:21;5.9;;;2.7;;
40012;SDS011;37387;42.672;23.334;2023-02-01T03:09:22;4.4;;;2.9;;
40012;SDS011;37387;42.672;23.334;2023-02-01T03:10:23;5.5;;;2.8;;
40012;SDS011;37387;42.672;23.334;2023-02-01T03:11:20;4.3;;;2.5;;
40012;SDS011;37387;42.672;23.334;2023-02-01T03:12:20;4.2;;;2.8;;
40012;SDS011;37387;42.672;23.334;2023-02-01T03:13:24;4.2;;;3.4;;
40012;SDS011;37387;42.672;23.334;2023-02-01T03:14:20;6.7;;;2.7;;
40012;SDS011;37387;42.672;23.334;2023-02-01T03:15:20;3.3;;;1.9;;
40012;SDS011;37387;42.672;23.334;2023-02-01T03:16:20;3.4;;;2.1;;
40012;SDS011;37387;42.672;23.334;2023-02-01T03:17:21;3.8;;;2.2;;
40012;SDS011;37387;42.672;23.334;2023-02-01T03:20:19;4.3;;;2.3;;
40012;SDS011;37387;42.672;23.334;2023-02-01T03:21:20;4.3;;;2.1;;
40012;SDS011;37387;42.672;23.334;2023-02-01T03:22:20;3.3;;;2.4;;
40012;SDS011;37387;42.672;23.334;2023-02-01T03:23:19;4.7;;;2.2;;
40012;SDS011;37387;42.672;23.334;2023-02-01T03:24:21;4.7;;;2.1;;
40012;SDS011;37387;42.672;23.334;2023-02-01T03:25:19;3.9;;;2.4;;
40012;SDS011;37387;42.672;23.334;2023-02-01T03:26:18;3.9;;;2.3;;
40012;SDS011;37387;42.672;23.334;2023-02-01T03:27:20;3.7;;;2.2;;
40012;SDS011;37387;42.672;23.334;2023-02-01T03:28:18;3.1;;;2.0;;
40012;SDS011;37387;42.672;23.334;2023-02-01T03:31:17;2.6;;;1.9;;
40012;SDS011;37387;42.672;23.334;2023-02-01T03:32:17;2.6;;;2.2;;
40012;SDS011;37387;42.672;23.334;2023-02-01T03:34:17;4.8;;;2.3;;
40012;SDS011;37387;42.672;23.334;2023-02-01T03:35:17;4.8;;;2.1;;
40012;SDS011;37387;42.672;23.334;2023-02-01T03:38:18;5.8;;;2.5;;
40012;SDS011;37387;42.672;23.334;2023-02-01T03:39:18;5.8;;;2.1;;
40012;SDS011;37387;42.672;23.334;2023-02-01T03:41:17;3.6;;;1.9;;
40012;SDS011;37387;42.672;23.334;2023-02-01T03:42:17;4.5;;;2.3;;
40012;SDS011;37387;42.672;23.334;2023-02-01T03:43:16;4.2;;;1.9;;
40012;SDS011;37387;42.672;23.334;2023-02-01T03:44:16;5.0;;;2.5;;
40012;SDS011;37387;42.672;23.334;2023-02-01T03:45:17;4.8;;;1.9;;
40012;SDS011;37387;42.672;23.334;2023-02-01T03:46:17;3.0;;;2.1;;
40012;SDS011;37387;42.672;23.334;2023-02-01T03:48:15;5.4;;;2.2;;
40012;SDS011;37387;42.672;23.334;2023-02-01T03:49:17;4.5;;;2.1;;
40012;SDS011;37387;42.672;23.334;2023-02-01T03:50:15;4.5;;;2.0;;
40012;SDS011;37387;42.672;23.334;2023-02-01T03:52:16;4.9;;;2.3;;
40012;SDS011;37387;42.672;23.334;2023-02-01T03:53:16;4.9;;;1.7;;
40012;SDS011;37387;42.672;23.334;2023-02-01T03:54:14;6.5;;;2.1;;
40012;SDS011;37387;42.672;23.334;2023-02-01T03:56:14;3.5;;;1.8;;
40012;SDS011;37387;42.672;23.334;2023-02-01T03:57:16;3.5;;;2.1;;
40012;SDS011;37387;42.672;23.334;2023-02-01T03:58:15;3.5;;;2.4;;
40012;SDS011;37387;42.672;23.334;2023-02-01T03:59:14;4.2;;;2.3;;
40012;SDS011;37387;42.672;23.334;2023-02-01T04:00:15;6.3;;;2.1;;
40012;SDS011;37387;42.672;23.334;2023-02-01T04:02:13;3.8;;;2.4;;
40012;SDS011;37387;42.672;23.334;2023-02-01T04:03:13;3.3;;;2.0;;
40012;SDS011;37387;42.672;23.334;2023-02-01T04:04:13;3.1;;;2.1;;
40012;SDS011;37387;42.672;23.334;2023-02-01T04:05:13;3.0;;;2.3;;
40012;SDS011;37387;42.672;23.334;2023-02-01T04:06:13;3.0;;;2.5;;
40012;SDS011;37387;42.672;23.334;2023-02-01T04:07:13;5.0;;;2.0;;
40012;SDS011;37387;42.672;23.334;2023-02-01T04:08:13;3.8;;;2.2;;
40012;SDS011;37387;42.672;23.334;2023-02-01T04:09:13;3.9;;;2.4;;
40012;SDS011;37387;42.672;23.334;2023-02-01T04:10:12;6.3;;;2.2;;
40012;SDS011;37387;42.672;23.334;2023-02-01T04:11:12;3.5;;;2.0;;
40012;SDS011;37387;42.672;23.334;2023-02-01T04:12:12;3.5;;;2.7;;
40012;SDS011;37387;42.672;23.334;2023-02-01T04:13:12;7.4;;;2.6;;
40012;SDS011;37387;42.672;23.334;2023-02-01T04:14:12;3.8;;;2.1;;
40012;SDS011;37387;42.672;23.334;2023-02-01T04:15:12;4.0;;;2.7;;
40012;SDS011;37387;42.672;23.334;2023-02-01T04:16:12;5.2;;;2.4;;
40012;SDS011;37387;42.672;23.334;2023-02-01T04:18:11;5.9;;;2.8;;
40012;SDS011;37387;42.672;23.334;2023-02-01T04:19:11;5.9;;;2.2;;
40012;SDS011;37387;42.672;23.334;2023-02-01T04:20:11;5.7;;;3.0;;
40012;SDS011;37387;42.672;23.334;2023-02-01T04:21:11;3.8;;;2.7;;
40012;SDS011;37387;42.672;23.334;2023-02-01T04:22:11;3.8;;;2.5;;
40012;SDS011;37387;42.672;23.334;2023-02-01T04:23:11;4.1;;;2.3;;
40012;SDS011;37387;42.672;23.334;2023-02-01T04:24:11;4.7;;;2.5;;
40012;SDS011;37387;42.672;23.334;2023-02-01T04:26:10;4.9;;;2.8;;
40012;SDS011;37387;42.672;23.334;2023-02-01T04:27:10;4.9;;;2.6;;
40012;SDS011;37387;42.672;23.334;2023-02-01T04:28:10;5.1;;;2.9;;
40012;SDS011;37387;42.672;23.334;2023-02-01T04:29:10;5.4;;;3.1;;
40012;SDS011;37387;42.672;23.334;2023-02-01T04:30:11;4.9;;;3.0;;
40012;SDS011;37387;42.672;23.334;2023-02-01T04:31:10;4.8;;;3.1;;
40012;SDS011;37387;42.672;23.334;2023-02-01T04:32:10;4.4;;;2.9;;
40012;SDS011;37387;42.672;23.334;2023-02-01T04:33:10;4.4;;;2.6;;
40012;SDS011;37387;42.672;23.334;2023-02-01T04:34:10;4.9;;;2.8;;
40012;SDS011;37387;42.672;23.334;2023-02-01T04:36:09;5.5;;;2.7;;
40012;SDS011;37387;42.672;23.334;2023-02-01T04:37:09;4.6;;;3.0;;
40012;SDS011;37387;42.672;23.334;2023-02-01T04:39:09;4.7;;;2.8;;
40012;SDS011;37387;42.672;23.334;2023-02-01T04:41:09;5.5;;;2.9;;
40012;SDS011;37387;42.672;23.334;2023-02-01T04:42:09;5.6;;;3.1;;
40012;SDS011;37387;42.672;23.334;2023-02-01T04:43:08;4.6;;;2.9;;
40012;SDS011;37387;42.672;23.334;2023-02-01T04:44:09;5.7;;;3.1;;
40012;SDS011;37387;42.672;23.334;2023-02-01T04:46:08;4.9;;;3.4;;
40012;SDS011;37387;42.672;23.334;2023-02-01T04:47:08;4.9;;;3.2;;
40012;SDS011;37387;42.672;23.334;2023-02-01T04:48:08;4.0;;;3.3;;
40012;SDS011;37387;42.672;23.334;2023-02-01T04:49:08;6.0;;;3.1;;
40012;SDS011;37387;42.672;23.334;2023-02-01T04:50:08;5.2;;;3.4;;
40012;SDS011;37387;42.672;23.334;2023-02-01T04:51:08;5.1;;;3.8;;
40012;SDS011;37387;42.672;23.334;2023-02-01T04:52:07;4.0;;;3.2;;
40012;SDS011;37387;42.672;23.334;2023-02-01T04:53:07;4.0;;;3.1;;
40012;SDS011;37387;42.672;23.334;2023-02-01T04:54:07;4.7;;;3.0;;
40012;SDS011;37387;42.672;23.334;2023-02-01T04:55:07;7.1;;;3.5;;
40012;SDS011;37387;42.672;23.334;2023-02-01T04:56:07;7.1;;;3.3;;
40012;SDS011;37387;42.672;23.334;2023-02-01T04:57:07;5.3;;;3.5;;
40012;SDS011;37387;42.672;23.334;2023-02-01T04:58:07;5.8;;;3.1;;
40012;SDS011;37387;42.672;23.334;2023-02-01T04:59:06;5.8;;;3.8;;
40012;SDS011;37387;42.672;23.334;2023-02-01T05:00:07;7.0;;;3.4;;
40012;SDS011;37387;42.672;23.334;2023-02-01T05:01:06;5.7;;;3.6;;
40012;SDS011;37387;42.672;23.334;2023-02-01T05:02:06;5.7;;;3.7;;
40012;SDS011;37387;42.672;23.334;2023-02-01T05:03:06;6.1;;;3.5;;
40012;SDS011;37387;42.672;23.334;2023-02-01T05:05:06;7.0;;;4.0;;
40012;SDS011;37387;42.672;23.334;2023-02-01T05:06:06;7.1;;;3.4;;
40012;SDS011;37387;42.672;23.334;2023-02-01T05:07:05;7.0;;;3.7;;
40012;SDS011;37387;42.672;23.334;2023-02-01T05:08:05;7.0;;;3.3;;
40012;SDS011;37387;42.672;23.334;2023-02-01T05:09:05;5.3;;;3.5;;
40012;SDS011;37387;42.672;23.334;2023-02-01T05:12:05;5.4;;;3.7;;
40012;SDS011;37387;42.672;23.334;2023-02-01T05:13:05;7.4;;;4.1;;
40012;SDS011;37387;42.672;23.334;2023-02-01T05:14:05;6.7;;;3.8;;
40012;SDS011;37387;42.672;23.334;2023-02-01T05:15:05;6.0;;;3.6;;
40012;SDS011;37387;42.672;23.334;2023-02-01T05:16:04;6.0;;;3.3;;
40012;SDS011;37387;42.672;23.334;2023-02-01T05:17:04;7.9;;;3.6;;
40012;SDS011;37387;42.672;23.334;2023-02-01T05:18:04;7.9;;;3.5;;
40012;SDS011;37387;42.672;23.334;2023-02-01T05:19:04;7.0;;;3.4;;
40012;SDS011;37387;42.672;23.334;2023-02-01T05:20:04;7.0;;;3.8;;
40012;SDS011;37387;42.672;23.334;2023-02-01T05:21:04;6.3;;;3.6;;
40012;SDS011;37387;42.672;23.334;2023-02-01T05:23:04;8.2;;;3.9;;
40012;SDS011;37387;42.672;23.334;2023-02-01T05:24:04;6.0;;;3.5;;
40012;SDS011;37387;42.672;23.334;2023-02-01T05:27:03;5.4;;;3.4;;
40012;SDS011;37387;42.672;23.334;2023-02-01T05:28:03;5.4;;;4.1;;
40012;SDS011;37387;42.672;23.334;2023-02-01T05:29:03;5.6;;;3.3;;
40012;SDS011;37387;42.672;23.334;2023-02-01T05:30:03;5.6;;;3.6;;
40012;SDS011;37387;42.672;23.334;2023-02-01T05:31:08;6.2;;;3.3;;
40012;SDS011;37387;42.672;23.334;2023-02-01T05:32:03;9.0;;;4.0;;
40012;SDS011;37387;42.672;23.334;2023-02-01T05:33:02;9.0;;;3.4;;
40012;SDS011;37387;42.672;23.334;2023-02-01T05:34:02;6.1;;;3.8;;
40012;SDS011;37387;42.672;23.334;2023-02-01T05:35:02;6.1;;;3.9;;
40012;SDS011;37387;42.672;23.334;2023-02-01T05:36:02;7.7;;;3.6;;
40012;SDS011;37387;42.672;23.334;2023-02-01T05:37:02;5.6;;;3.8;;
40012;SDS011;37387;42.672;23.334;2023-02-01T05:38:02;5.0;;;3.6;;
40012;SDS011;37387;42.672;23.334;2023-02-01T05:39:02;5.0;;;4.0;;
40012;SDS011;37387;42.672;23.334;2023-02-01T05:40:02;7.7;;;3.9;;
40012;SDS011;37387;42.672;23.334;2023-02-01T05:41:01;7.4;;;3.8;;
40012;SDS011;37387;42.672;23.334;2023-02-01T05:42:01;4.9;;;3.9;;
40012;SDS011;37387;42.672;23.334;2023-02-01T05:43:01;7.5;;;3.5;;
40012;SDS011;37387;42.672;23.334;2023-02-01T05:44:01;5.6;;;3.8;;
40012;SDS011;37387;42.672;23.334;2023-02-01T05:46:01;6.5;;;4.3;;
40012;SDS011;37387;42.672;23.334;2023-02-01T05:47:01;8.7;;;3.6;;
40012;SDS011;37387;42.672;23.334;2023-02-01T05:48:01;7.3;;;3.9;;
40012;SDS011;37387;42.672;23.334;2023-02-01T05:49:00;6.3;;;3.7;;
40012;SDS011;37387;42.672;23.334;2023-02-01T05:50:00;7.3;;;3.9;;
40012;SDS011;37387;42.672;23.334;2023-02-01T05:51:00;6.8;;;4.2;;
40012;SDS011;37387;42.672;23.334;2023-02-01T05:52:00;6.8;;;3.5;;
40012;SDS011;37387;42.672;23.334;2023-02-01T05:53:00;5.2;;;3.7;;
40012;SDS011;37387;42.672;23.334;2023-02-01T05:54:00;7.7;;;3.8;;
40012;SDS011;37387;42.672;23.334;2023-02-01T05:56:00;7.2;;;3.9;;
40012;SDS011;37387;42.672;23.334;2023-02-01T05:57:59;8.9;;;7.0;;
40012;SDS011;37387;42.672;23.334;2023-02-01T05:58:59;15.8;;;4.5;;
40012;SDS011;37387;42.672;23.334;2023-02-01T05:59:59;10.9;;;3.9;;
40012;SDS011;37387;42.672;23.334;2023-02-01T06:00:59;6.9;;;3.3;;
40012;SDS011;37387;42.672;23.334;2023-02-01T06:01:59;7.0;;;3.5;;
40012;SDS011;37387;42.672;23.334;2023-02-01T06:02:59;7.0;;;3.4;;
40012;SDS011;37387;42.672;23.334;2023-02-01T06:03:58;6.2;;;3.3;;
40012;SDS011;37387;42.672;23.334;2023-02-01T06:05:58;7.1;;;4.3;;
40012;SDS011;37387;42.672;23.334;2023-02-01T06:06:58;8.4;;;3.7;;
40012;SDS011;37387;42.672;23.334;2023-02-01T06:07:58;8.4;;;3.4;;
40012;SDS011;37387;42.672;23.334;2023-02-01T06:08:58;6.8;;;3.1;;
40012;SDS011;37387;42.672;23.334;2023-02-01T06:09:58;5.2;;;3.3;;
40012;SDS011;37387;42.672;23.334;2023-02-01T06:10:58;6.0;;;3.1;;
40012;SDS011;37387;42.672;23.334;2023-02-01T06:11:58;8.0;;;3.6;;
40012;SDS011;37387;42.672;23.334;2023-02-01T06:12:57;6.1;;;3.5;;
40012;SDS011;37387;42.672;23.334;2023-02-01T06:14:57;13.7;;;3.3;;
40012;SDS011;37387;42.672;23.334;2023-02-01T06:15:57;8.8;;;2.8;;
40012;SDS011;37387;42.672;23.334;2023-02-01T06:16:57;5.3;;;3.3;;
40012;SDS011;37387;42.672;23.334;2023-02-01T06:17:57;6.6;;;3.0;;
40012;SDS011;37387;42.672;23.334;2023-02-01T06:18:57;6.6;;;3.2;;
40012;SDS011;37387;42.672;23.334;2023-02-01T06:19:57;4.4;;;3.3;;
40012;SDS011;37387;42.672;23.334;2023-02-01T06:20:57;8.2;;;3.4;;
40012;SDS011;37387;42.672;23.334;2023-02-01T06:21:56;7.0;;;3.7;;
40012;SDS011;37387;42.672;23.334;2023-02-01T06:22:56;8.2;;;3.1;;
40012;SDS011;37387;42.672;23.334;2023-02-01T06:24:56;7.3;;;5.5;;
40012;SDS011;37387;42.672;23.334;2023-02-01T06:26:00;10.2;;;3.8;;
40012;SDS011;37387;42.672;23.334;2023-02-01T06:26:56;7.0;;;3.3;;
40012;SDS011;37387;42.672;23.334;2023-02-01T06:27:56;6.6;;;3.4;;
40012;SDS011;37387;42.672;23.334;2023-02-01T06:28:56;8.7;;;4.0;;
40012;SDS011;37387;42.672;23.334;2023-02-01T06:29:55;8.7;;;2.9;;
40012;SDS011;37387;42.672;23.334;2023-02-01T06:32:55;5.9;;;3.2;;
40012;SDS011;37387;42.672;23.334;2023-02-01T06:33:55;5.9;;;2.7;;
40012;SDS011;37387;42.672;23.334;2023-02-01T06:34:55;7.3;;;2.8;;
40012;SDS011;37387;42.672;23.334;2023-02-01T06:36:54;5.7;;;2.6;;
40012;SDS011;37387;42.672;23.334;2023-02-01T06:37:54;3.5;;;2.8;;
40012;SDS011;37387;42.672;23.334;2023-02-01T06:38:55;7.2;;;3.1;;
40012;SDS011;37387;42.672;23.334;2023-02-01T06:39:54;5.0;;;3.2;;
40012;SDS011;37387;42.672;23.334;2023-02-01T06:40:54;7.9;;;2.8;;
40012;SDS011;37387;42.672;23.334;2023-02-01T06:41:54;7.0;;;2.6;;
40012;SDS011;37387;42.672;23.334;2023-02-01T06:44:54;6.0;;;2.9;;
40012;SDS011;37387;42.672;23.334;2023-02-01T06:45:58;6.0;;;2.7;;
40012;SDS011;37387;42.672;23.334;2023-02-01T06:46:53;5.2;;;8.8;;
40012;SDS011;37387;42.672;23.334;2023-02-01T06:47:53;19.1;;;5.0;;
40012;SDS011;37387;42.672;23.334;2023-02-01T06:48:53;14.8;;;7.2;;
40012;SDS011;37387;42.672;23.334;2023-02-01T06:49:53;14.8;;;3.6;;
40012;SDS011;37387;42.672;23.334;2023-02-01T06:50:53;7.5;;;3.0;;
40012;SDS011;37387;42.672;23.334;2023-02-01T06:52:53;8.3;;;3.2;;
40012;SDS011;37387;42.672;23.334;2023-02-01T06:53:53;8.3;;;3.3;;
40012;SDS011;37387;42.672;23.334;2023-02-01T06:54:52;8.2;;;3.2;;
40012;SDS011;37387;42.672;23.334;2023-02-01T06:55:53;6.4;;;3.6;;
40012;SDS011;37387;42.672;23.334;2023-02-01T06:56:52;6.4;;;3.8;;
40012;SDS011;37387;42.672;23.334;2023-02-01T06:57:53;9.3;;;3.4;;
40012;SDS011;37387;42.672;23.334;2023-02-01T06:58:52;7.6;;;3.2;;
40012;SDS011;37387;42.672;23.334;2023-02-01T06:59:52;5.8;;;3.4;;
40012;SDS011;37387;42.672;23.334;2023-02-01T07:00:52;6.8;;;3.0;;
40012;SDS011;37387;42.672;23.334;2023-02-01T07:01:52;5.8;;;2.5;;
40012;SDS011;37387;42.672;23.334;2023-02-01T07:02:52;6.2;;;2.8;;
40012;SDS011;37387;42.672;23.334;2023-02-01T07:03:52;6.7;;;3.4;;
40012;SDS011;37387;42.672;23.334;2023-02-01T07:04:51;5.1;;;2.8;;
40012;SDS011;37387;42.672;23.334;2023-02-01T07:06:51;5.5;;;3.2;;
40012;SDS011;37387;42.672;23.334;2023-02-01T07:07:51;6.4;;;3.1;;
40012;SDS011;37387;42.672;23.334;2023-02-01T07:08:51;5.6;;;2.8;;
40012;SDS011;37387;42.672;23.334;2023-02-01T07:09:51;5.4;;;3.2;;
40012;SDS011;37387;42.672;23.334;2023-02-01T07:10:51;6.1;;;3.3;;
40012;SDS011;37387;42.672;23.334;2023-02-01T07:11:51;9.9;;;3.4;;
40012;SDS011;37387;42.672;23.334;2023-02-01T07:12:51;9.9;;;3.2;;
40012;SDS011;37387;42.672;23.334;2023-02-01T07:13:50;8.2;;;3.3;;
40012;SDS011;37387;42.672;23.334;2023-02-01T07:14:50;8.3;;;2.8;;
40012;SDS011;37387;42.672;23.334;2023-02-01T07:15:50;4.5;;;2.6;;
40012;SDS011;37387;42.672;23.334;2023-02-01T07:16:50;10.1;;;3.1;;
40012;SDS011;37387;42.672;23.334;2023-02-01T07:17:50;8.4;;;3.4;;
40012;SDS011;37387;42.672;23.334;2023-02-01T07:18:50;7.7;;;2.8;;
40012;SDS011;37387;42.672;23.334;2023-02-01T07:19:50;5.5;;;2.7;;
40012;SDS011;37387;42.672;23.334;2023-02-01T07:20:50;5.5;;;2.9;;
40012;SDS011;37387;42.672;23.334;2023-02-01T07:21:50;7.2;;;2.7;;